Time;durP1;ratioP1;P1;durP2;ratioP2;P2;SDS_P1;SDS_P2;PMS_P1;PMS_P2;Temp;Humidity;BMP_temperature;BMP_pressure;BME280_temperature;BME280_humidity;BME280_pressure;Samples;Min_cycle;Max_cycle;Signal;HPM_P1;HPM_P2
2022/09/06 00:01:43;;;;;;;;;;;18.70;72.00;;;18.01;66.32;96874.13;4210434;33;19978;-85
2022/09/06 00:04:12;;;;;;;;;;;18.70;72.10;;;18.00;65.87;96875.28;4234601;33;20225;-85
2022/09/06 00:06:40;;;;;;;;;;;18.70;72.10;;;18.00;66.29;96878.06;4234404;33;19910;-85
2022/09/06 00:09:09;;;;;;;;;;;18.70;72.00;;;18.00;66.21;96875.28;4210578;33;20039;-85
2022/09/06 00:11:39;;;;;;;;;;;18.70;72.00;;;18.00;66.44;96878.06;4233658;33;20090;-84
2022/09/06 00:14:08;;;;;;;;;;;18.70;72.20;;;18.00;66.46;96882.75;4234213;33;19913;-84
2022/09/06 00:16:39;;;;;;;;;;;18.70;72.20;;;17.98;66.13;96874.75;4234423;33;19903;-83
2022/09/06 00:19:08;;;;;;;;;;;18.70;72.20;;;17.97;66.32;96875.88;4210683;33;19971;-84
2022/09/06 00:21:36;;;;;;;;;;;18.70;72.20;;;17.99;66.53;96875.56;4233882;33;19902;-85
2022/09/06 00:24:05;;;;;;;;;;;18.70;72.20;;;17.99;66.70;96881.09;4234164;33;19902;-85
2022/09/06 00:26:33;;;;;;;;;;;18.70;72.30;;;17.98;66.53;96880.28;4210856;33;20143;-85
2022/09/06 00:29:03;;;;;;;;;;;18.70;72.20;;;17.98;66.29;96877.53;4210777;33;20224;-84
2022/09/06 00:31:34;;;;;;;;;;;18.70;72.20;;;17.97;66.54;96884.19;4210130;33;19909;-84
2022/09/06 00:34:02;;;;;;;;;;;18.70;72.20;;;17.97;66.47;96877.78;4233987;33;19902;-84
2022/09/06 00:36:31;;;;;;;;;;;18.70;72.10;;;17.97;66.59;96877.78;4235240;33;20254;-84
2022/09/06 00:38:59;;;;;;;;;;;18.70;72.20;;;17.94;66.78;96868.94;4257628;33;19902;-85
2022/09/06 00:41:28;;;;;;;;;;;18.70;72.40;;;17.96;66.53;96868.66;4233720;33;20120;-84
2022/09/06 00:43:57;;;;;;;;;;;18.70;72.30;;;17.95;66.54;96875.31;4233900;33;20036;-84
2022/09/06 00:46:28;;;;;;;;;;;18.70;72.40;;;17.95;66.49;96876.13;4234248;33;20110;-84
2022/09/06 00:49:00;;;;;;;;;;;18.70;72.30;;;17.95;66.87;96875.31;4233947;33;20126;-85
2022/09/06 00:51:28;;;;;;;;;;;18.70;72.50;;;17.93;66.58;96869.25;4210199;33;20067;-85
2022/09/06 00:53:57;;;;;;;;;;;18.60;72.30;;;17.94;66.57;96865.34;4234034;33;19902;-86
2022/09/06 00:56:25;;;;;;;;;;;18.70;72.40;;;17.94;66.91;96874.47;4210582;33;20208;-85
2022/09/06 00:58:55;;;;;;;;;;;18.60;72.60;;;17.93;66.51;96874.78;4210276;33;19904;-84
2022/09/06 01:01:23;;;;;;;;;;;18.60;72.30;;;17.93;66.60;96869.25;4234362;33;20411;-85
2022/09/06 01:20:17;;;;;;;;;;;18.60;72.70;;;17.90;66.84;96880.94;4304065;32;19967;-83
2022/09/06 01:23:07;;;;;;;;;;;18.60;72.90;;;17.90;66.38;96878.16;4257910;28;19910;-86
2022/09/06 01:25:38;;;;;;;;;;;18.60;72.50;;;17.90;66.98;96878.16;4211737;33;19915;-86
2022/09/06 01:28:41;;;;;;;;;;;18.60;72.80;;;17.89;66.82;96871.81;4165749;34;19909;-86
2022/09/06 01:31:23;;;;;;;;;;;18.60;72.70;;;17.88;66.68;96872.94;4187145;33;20416;-83
2022/09/06 01:34:12;;;;;;;;;;;18.60;72.70;;;17.89;66.96;96876.50;4212027;33;20101;-84
2022/09/06 01:36:44;;;;;;;;;;;18.60;72.60;;;17.89;66.69;96879.28;4164738;34;20119;-84
2022/09/06 01:39:20;;;;;;;;;;;18.60;72.50;;;17.88;66.89;96880.44;4188406;34;20124;-85
2022/09/06 01:41:49;;;;;;;;;;;18.60;72.70;;;17.88;66.91;96883.19;4188367;34;20195;-85
2022/09/06 01:44:19;;;;;;;;;;;18.60;72.90;;;17.88;67.05;96878.47;4211868;33;19903;-84
2022/09/06 01:46:53;;;;;;;;;;;18.60;73.00;;;17.88;66.99;96877.66;4211317;33;19910;-85
2022/09/06 01:49:30;;;;;;;;;;;18.60;72.90;;;17.86;67.00;96872.41;4188311;34;19903;-84
2022/09/06 01:52:08;;;;;;;;;;;18.60;72.80;;;17.86;66.72;96874.38;4188397;34;19903;-85
2022/09/06 01:55:07;;;;;;;;;;;18.60;72.60;;;17.86;66.81;96877.13;4188313;34;19903;-85
2022/09/06 01:58:06;;;;;;;;;;;18.60;72.70;;;17.86;66.99;96871.59;4151955;34;20039;-85
2022/09/06 02:00:39;;;;;;;;;;;18.60;72.80;;;17.86;66.80;96868.81;4188310;34;19969;-85
2022/09/06 02:03:09;;;;;;;;;;;18.60;72.90;;;17.85;67.17;96865.22;4188091;34;20124;-85
2022/09/06 02:05:42;;;;;;;;;;;18.50;72.70;;;17.85;67.03;96858.88;4188767;34;20012;-86
2022/09/06 02:08:14;;;;;;;;;;;18.60;72.90;;;17.84;66.90;96862.75;4188090;34;20222;-85
2022/09/06 02:10:46;;;;;;;;;;;18.60;72.80;;;17.83;66.98;96861.13;4188041;34;20140;-85
2022/09/06 02:13:15;;;;;;;;;;;18.60;72.90;;;17.84;66.88;96862.75;4188222;34;20206;-86
2022/09/06 02:15:47;;;;;;;;;;;18.50;72.80;;;17.83;66.72;96867.47;4164597;34;20228;-86
2022/09/06 02:18:18;;;;;;;;;;;18.60;72.60;;;17.83;66.87;96867.47;4214770;33;19930;-85
2022/09/06 02:20:50;;;;;;;;;;;18.60;72.70;;;17.83;66.72;96863.88;4244403;33;19902;-86
2022/09/06 02:23:19;;;;;;;;;;;18.50;72.70;;;17.82;66.83;96865.00;4243864;33;20165;-86
2022/09/06 02:25:50;;;;;;;;;;;18.50;72.80;;;17.81;67.00;96864.19;4244130;33;20402;-85
2022/09/06 02:28:18;;;;;;;;;;;18.50;73.00;;;17.82;67.02;96873.31;4245145;33;19902;-85
2022/09/06 02:30:50;;;;;;;;;;;18.50;72.90;;;17.81;66.73;96863.34;4212551;33;19903;-85
2022/09/06 02:33:20;;;;;;;;;;;18.50;72.80;;;17.80;66.98;96868.09;4211219;33;20222;-84
2022/09/06 02:35:51;;;;;;;;;;;18.50;73.00;;;17.80;67.01;96868.09;4179103;34;19903;-84
2022/09/06 02:38:21;;;;;;;;;;;18.50;72.90;;;17.80;67.04;96868.09;4178419;34;19964;-85
2022/09/06 02:40:50;;;;;;;;;;;18.50;73.10;;;17.81;67.01;96874.44;4178636;34;19903;-85
2022/09/06 02:43:20;;;;;;;;;;;18.50;73.00;;;17.79;66.79;96872.78;4178522;34;20217;-85
2022/09/06 02:45:50;;;;;;;;;;;18.50;72.80;;;17.79;67.08;96881.09;4179082;34;19911;-84
2022/09/06 02:48:18;;;;;;;;;;;18.50;73.10;;;17.78;67.16;96882.22;4225151;33;19903;-85
2022/09/06 02:50:47;;;;;;;;;;;18.50;73.10;;;17.77;66.81;96880.56;4178419;34;19903;-85
2022/09/06 02:53:16;;;;;;;;;;;18.50;72.80;;;17.78;66.81;96876.69;4179304;33;19903;-85
2022/09/06 02:55:46;;;;;;;;;;;18.50;72.90;;;17.77;67.02;96869.50;4201319;33;19903;-85
2022/09/06 02:58:15;;;;;;;;;;;18.40;72.90;;;17.77;67.12;96875.03;4155557;34;19903;-85
2022/09/06 03:00:44;;;;;;;;;;;18.50;73.10;;;17.76;67.12;96878.91;4178370;34;19910;-85
2022/09/06 03:03:14;;;;;;;;;;;18.50;73.20;;;17.76;66.94;96867.84;4178226;34;20134;-85
2022/09/06 03:05:42;;;;;;;;;;;18.40;72.80;;;17.75;66.67;96876.47;4177895;34;19940;-85
2022/09/06 03:08:11;;;;;;;;;;;18.40;72.90;;;17.75;66.89;96871.72;4201480;33;19903;-85
2022/09/06 03:10:40;;;;;;;;;;;18.50;72.90;;;17.73;67.20;96868.47;4201483;33;20274;-85
2022/09/06 03:13:08;;;;;;;;;;;18.40;73.00;;;17.75;67.17;96876.47;4201272;33;19999;-85
2022/09/06 03:15:37;;;;;;;;;;;18.50;73.10;;;17.74;67.12;96874.81;4154947;34;19910;-85
2022/09/06 03:18:05;;;;;;;;;;;18.50;73.20;;;17.74;67.06;96872.88;4178352;34;19910;-85
2022/09/06 03:20:35;;;;;;;;;;;18.40;73.10;;;17.72;67.17;96877.91;4154796;34;19910;-85
2022/09/06 03:23:04;;;;;;;;;;;18.40;73.20;;;17.73;67.19;96881.47;4178107;34;19918;-85
2022/09/06 03:25:33;;;;;;;;;;;18.40;73.20;;;17.72;67.26;96877.06;4177917;34;20226;-85
2022/09/06 03:28:02;;;;;;;;;;;18.50;73.40;;;17.72;67.43;96877.91;4178044;34;19903;-84
2022/09/06 03:30:31;;;;;;;;;;;18.50;73.40;;;17.72;67.35;96882.59;4177979;34;19908;-85
2022/09/06 03:32:59;;;;;;;;;;;18.40;73.20;;;17.71;67.05;96876.25;4155019;34;20391;-85
2022/09/06 03:35:28;;;;;;;;;;;18.40;72.90;;;17.70;67.39;96869.06;4200941;33;20145;-85
2022/09/06 03:37:58;;;;;;;;;;;18.40;73.20;;;17.70;67.00;96877.38;4177872;34;19923;-85
2022/09/06 03:40:27;;;;;;;;;;;18.50;73.10;;;17.70;67.36;96880.13;4201059;33;20241;-84
2022/09/06 03:42:55;;;;;;;;;;;18.40;73.10;;;17.69;67.16;96874.88;4177054;34;19910;-85
2022/09/06 03:45:24;;;;;;;;;;;18.40;72.90;;;17.69;67.29;96878.50;4154976;34;19903;-86
2022/09/06 03:47:53;;;;;;;;;;;18.40;73.20;;;17.70;67.22;96879.31;4153895;34;19965;-86
2022/09/06 03:50:21;;;;;;;;;;;18.40;73.10;;;17.69;67.27;96884.03;4194916;33;20389;-86
2022/09/06 03:52:50;;;;;;;;;;;18.40;73.20;;;17.69;67.23;96884.03;4210171;33;19909;-86
2022/09/06 03:55:20;;;;;;;;;;;18.40;73.20;;;17.69;67.17;96884.03;4210193;33;20168;-86
2022/09/06 03:57:48;;;;;;;;;;;18.40;73.20;;;17.68;67.16;96890.69;4209666;33;19904;-86
2022/09/06 04:00:17;;;;;;;;;;;18.40;73.10;;;17.68;67.02;96881.56;4210192;33;20033;-85
2022/09/06 04:02:46;;;;;;;;;;;18.40;73.20;;;17.68;67.13;96893.47;4210070;33;19909;-84
2022/09/06 04:05:15;;;;;;;;;;;18.40;74.00;;;17.68;67.57;96887.91;4233514;33;19910;-83
2022/09/06 04:07:44;;;;;;;;;;;18.40;73.20;;;17.69;67.18;96883.19;4209625;33;20145;-85
2022/09/06 04:10:12;;;;;;;;;;;18.40;73.20;;;17.68;67.25;96892.66;4233481;33;19902;-84
2022/09/06 04:12:43;;;;;;;;;;;18.40;73.20;;;17.67;67.13;96886.28;4234519;33;20173;-84
2022/09/06 04:15:12;;;;;;;;;;;18.40;73.10;;;17.68;67.38;96884.34;4233606;33;19910;-84
2022/09/06 04:17:44;;;;;;;;;;;18.40;73.20;;;17.68;67.24;96885.16;4209606;33;19902;-86
2022/09/06 04:20:13;;;;;;;;;;;18.40;73.20;;;17.67;67.26;96883.50;4257247;33;20435;-85
2022/09/06 04:22:42;;;;;;;;;;;18.40;73.20;;;17.68;67.09;96887.09;4209950;33;20111;-85
2022/09/06 04:25:12;;;;;;;;;;;18.40;73.00;;;17.67;66.81;96891.81;4233582;33;20380;-85
2022/09/06 04:27:42;;;;;;;;;;;18.40;73.00;;;17.67;66.90;96891.81;4232952;33;19902;-85
2022/09/06 04:30:11;;;;;;;;;;;18.40;72.80;;;17.68;66.91;96885.16;4234300;33;19942;-84
2022/09/06 04:32:40;;;;;;;;;;;18.40;72.80;;;17.69;67.16;96880.41;4233261;33;19917;-85
2022/09/06 04:35:09;;;;;;;;;;;18.40;73.00;;;17.69;67.09;96888.72;4233251;33;19902;-85
2022/09/06 04:37:38;;;;;;;;;;;18.40;73.00;;;17.68;67.24;96882.38;4232922;33;20249;-85
2022/09/06 04:40:07;;;;;;;;;;;18.40;72.90;;;17.72;67.11;96891.75;4257036;33;19941;-85
2022/09/06 04:42:36;;;;;;;;;;;18.40;73.20;;;17.71;67.07;96897.56;4203510;33;19908;-85
2022/09/06 04:45:08;;;;;;;;;;;18.40;72.90;;;17.72;66.92;96893.69;4154304;34;20115;-85
2022/09/06 04:47:36;;;;;;;;;;;18.40;72.80;;;17.72;66.90;96900.06;4176930;34;20094;-85
2022/09/06 04:50:06;;;;;;;;;;;18.50;72.80;;;17.74;66.73;96896.97;4154464;34;20131;-85
2022/09/06 04:52:34;;;;;;;;;;;18.40;72.60;;;17.73;66.80;96896.16;4177038;33;20122;-85
2022/09/06 04:55:04;;;;;;;;;;;18.50;72.70;;;17.75;66.90;96896.66;4177107;34;20249;-86
2022/09/06 04:57:32;;;;;;;;;;;18.50;72.90;;;17.77;66.54;96891.66;4199853;33;19903;-85
2022/09/06 05:00:01;;;;;;;;;;;18.50;72.40;;;17.82;66.36;96892.69;4177091;34;20235;-85
2022/09/06 05:02:31;;;;;;;;;;;18.60;72.10;;;17.99;66.60;96892.19;4216284;33;19909;-85
2022/09/06 05:04:59;;;;;;;;;;;18.70;72.20;;;18.26;65.41;96891.47;4233990;33;19903;-85
2022/09/06 05:07:28;;;;;;;;;;;19.10;70.90;;;18.41;64.88;96898.69;4209097;33;19902;-86
2022/09/06 05:09:57;;;;;;;;;;;19.30;69.60;;;18.47;64.28;96902.19;4233977;33;20171;-85
2022/09/06 05:12:25;;;;;;;;;;;19.30;69.00;;;18.40;64.42;96895.06;4211360;33;19903;-86
2022/09/06 05:14:54;;;;;;;;;;;19.30;69.00;;;18.44;64.26;96897.25;4177005;33;20124;-86
2022/09/06 05:17:22;;;;;;;;;;;19.30;69.30;;;18.60;63.96;96895.00;4199747;33;20133;-86
2022/09/06 05:19:53;;;;;;;;;;;19.40;69.10;;;18.79;62.99;96886.59;4176904;34;19925;-86
2022/09/06 05:22:21;;;;;;;;;;;19.50;68.40;;;18.91;63.13;96884.16;4176782;34;19903;-86
2022/09/06 05:24:50;;;;;;;;;;;19.60;68.20;;;19.00;62.92;96887.91;4176869;34;20186;-86
2022/09/06 05:27:18;;;;;;;;;;;19.70;68.10;;;19.08;63.17;96893.84;4199702;33;20020;-86
2022/09/06 05:29:47;;;;;;;;;;;19.80;68.40;;;19.11;63.18;96904.31;4154125;34;19974;-86
2022/09/06 05:32:15;;;;;;;;;;;19.90;68.60;;;19.14;63.45;96898.16;4222116;33;19927;-85
2022/09/06 05:34:44;;;;;;;;;;;19.90;69.30;;;19.18;63.23;96904.72;4232666;33;20143;-85
2022/09/06 05:37:14;;;;;;;;;;;20.00;68.30;;;19.21;63.37;96901.34;4232448;33;19946;-85
2022/09/06 05:39:43;;;;;;;;;;;20.10;68.30;;;19.25;63.38;96907.91;4232675;33;19910;-84
2022/09/06 05:42:11;;;;;;;;;;;20.10;68.00;;;19.19;62.99;96906.38;4232700;33;20110;-85
2022/09/06 05:44:40;;;;;;;;;;;20.10;67.80;;;19.16;63.67;96907.00;4232611;33;19926;-86
2022/09/06 05:47:08;;;;;;;;;;;20.00;68.10;;;19.25;63.04;96910.69;4233326;33;20231;-85
2022/09/06 05:49:37;;;;;;;;;;;20.10;68.30;;;19.31;62.94;96906.66;4232722;33;19903;-85
2022/09/06 05:52:05;;;;;;;;;;;20.20;68.00;;;19.22;63.19;96908.53;4232548;33;19909;-86
2022/09/06 05:54:36;;;;;;;;;;;20.10;67.70;;;19.17;63.48;96903.06;4232515;33;20074;-84
2022/09/06 05:57:04;;;;;;;;;;;20.00;67.90;;;19.22;63.54;96907.72;4233208;33;20139;-84
2022/09/06 05:59:33;;;;;;;;;;;20.00;69.20;;;19.16;63.54;96909.78;4232529;33;19910;-86
2022/09/06 06:02:01;;;;;;;;;;;20.00;68.30;;;19.04;63.71;96903.94;4232390;33;20337;-85
2022/09/06 06:04:30;;;;;;;;;;;19.90;68.60;;;18.90;64.06;96913.03;4232728;33;20062;-85
2022/09/06 06:06:59;;;;;;;;;;;19.80;68.90;;;18.80;64.50;96916.81;4211262;33;20353;-85
2022/09/06 06:09:27;;;;;;;;;;;19.70;69.30;;;18.68;64.73;96897.91;4234631;33;19909;-85
2022/09/06 06:11:57;;;;;;;;;;;19.60;69.70;;;18.64;65.34;96910.75;4211489;33;19910;-85
2022/09/06 06:14:26;;;;;;;;;;;19.50;70.10;;;18.68;65.09;96908.19;4206730;33;19902;-85
2022/09/06 06:16:55;;;;;;;;;;;19.40;70.30;;;18.74;64.98;96912.50;4206253;33;20142;-86
2022/09/06 06:19:25;;;;;;;;;;;19.40;70.30;;;18.74;65.07;96918.03;4206901;33;20212;-86
2022/09/06 06:21:55;;;;;;;;;;;19.50;70.60;;;18.81;64.81;96912.09;4206576;33;20122;-86
2022/09/06 06:24:23;;;;;;;;;;;19.50;70.40;;;18.86;64.79;96909.22;4183579;33;20102;-86
2022/09/06 06:26:52;;;;;;;;;;;19.60;70.30;;;18.87;64.71;96899.78;4206298;33;19903;-85
2022/09/06 06:29:24;;;;;;;;;;;19.60;70.10;;;18.93;64.62;96898.53;4183370;33;19903;-86
2022/09/06 06:31:52;;;;;;;;;;;19.60;70.10;;;18.96;64.65;96906.28;4206625;33;20173;-86
2022/09/06 06:34:21;;;;;;;;;;;19.60;70.00;;;19.01;64.04;96905.34;4229950;33;20328;-86
2022/09/06 06:36:49;;;;;;;;;;;19.70;69.90;;;19.05;64.33;96905.56;4206026;33;20027;-86
2022/09/06 06:39:18;;;;;;;;;;;19.70;69.80;;;19.10;64.11;96906.28;4206398;33;20102;-86
2022/09/06 06:41:49;;;;;;;;;;;19.80;69.70;;;19.13;63.99;96913.19;4206394;33;19903;-85
2022/09/06 06:44:36;;;;;;;;;;;19.80;69.60;;;19.16;63.85;96907.00;4206337;33;19909;-85
2022/09/06 06:47:05;;;;;;;;;;;19.80;69.60;;;19.19;64.19;96906.38;4182854;33;19909;-86
2022/09/06 06:49:34;;;;;;;;;;;19.80;69.60;;;19.22;63.97;96904.94;4206379;33;19903;-86
2022/09/06 06:52:03;;;;;;;;;;;19.80;69.40;;;19.23;64.00;96910.19;4207382;33;20302;-85
2022/09/06 06:54:32;;;;;;;;;;;19.90;69.60;;;19.27;63.90;96914.00;4206198;33;19903;-85
2022/09/06 06:57:00;;;;;;;;;;;19.90;69.50;;;19.30;63.61;96909.75;4205848;33;20213;-85
2022/09/06 06:59:29;;;;;;;;;;;20.00;69.40;;;19.30;63.87;96907.78;4183169;33;20153;-85
2022/09/06 07:01:59;;;;;;;;;;;20.00;69.20;;;19.32;63.92;96911.09;4229717;33;20240;-86
2022/09/06 07:04:27;;;;;;;;;;;20.00;69.30;;;19.34;63.52;96918.28;4225195;33;19904;-85
2022/09/06 07:06:56;;;;;;;;;;;20.00;69.20;;;19.28;63.64;96910.09;4234038;33;19903;-87
2022/09/06 07:09:25;;;;;;;;;;;20.00;69.20;;;19.26;63.71;96906.78;4234364;33;20383;-86
2022/09/06 07:11:54;;;;;;;;;;;19.90;69.20;;;19.22;63.85;96911.31;4234247;33;19926;-86
2022/09/06 07:14:23;;;;;;;;;;;19.90;69.40;;;19.23;64.06;96914.94;4234395;33;19910;-86
2022/09/06 07:16:57;;;;;;;;;;;19.90;69.50;;;19.27;63.84;96908.44;4233846;33;20232;-86
2022/09/06 07:19:27;;;;;;;;;;;19.90;69.60;;;19.26;63.83;96906.78;4234318;33;20121;-86
2022/09/06 07:21:57;;;;;;;;;;;19.90;69.50;;;19.18;64.38;96904.72;4234070;33;19902;-85
2022/09/06 07:24:26;;;;;;;;;;;19.90;69.60;;;19.11;64.24;96904.31;4257959;33;20213;-85
2022/09/06 07:26:54;;;;;;;;;;;19.80;69.60;;;19.03;64.58;96908.66;4210289;33;20064;-85
2022/09/06 07:29:23;;;;;;;;;;;19.80;69.90;;;19.01;64.63;96908.13;4234037;33;19903;-85
2022/09/06 07:31:55;;;;;;;;;;;19.80;70.10;;;19.00;64.52;96910.09;4210558;33;20088;-85
2022/09/06 07:34:25;;;;;;;;;;;19.70;70.20;;;19.07;64.65;96906.06;4210664;33;19903;-84
2022/09/06 07:36:55;;;;;;;;;;;19.70;70.30;;;19.11;64.70;96905.13;4233438;33;19902;-84
2022/09/06 07:39:24;;;;;;;;;;;19.80;70.20;;;19.16;64.20;96907.00;4210569;33;20080;-85
2022/09/06 07:41:52;;;;;;;;;;;19.80;70.10;;;19.22;64.05;96905.75;4234806;33;20134;-85
2022/09/06 07:44:21;;;;;;;;;;;19.80;70.00;;;19.26;64.19;96898.47;4210437;33;20451;-85
2022/09/06 07:46:50;;;;;;;;;;;19.80;69.80;;;19.28;63.71;96898.16;4233383;33;19902;-85
2022/09/06 07:49:19;;;;;;;;;;;19.90;69.70;;;19.30;63.71;96895.88;4233933;33;20037;-85
2022/09/06 07:51:48;;;;;;;;;;;19.90;69.80;;;19.33;63.97;96895.28;4257623;33;20157;-85
2022/09/06 07:54:18;;;;;;;;;;;19.90;69.60;;;19.37;63.50;96898.25;4233867;33;20041;-85
2022/09/06 07:56:47;;;;;;;;;;;20.00;69.50;;;19.40;63.66;96901.22;4209905;33;19902;-85
2022/09/06 07:59:15;;;;;;;;;;;20.00;69.40;;;19.42;63.66;96895.38;4233715;33;20133;-84
2022/09/06 08:01:44;;;;;;;;;;;20.00;69.40;;;19.41;63.60;96890.94;4234664;33;20105;-86
2022/09/06 08:04:13;;;;;;;;;;;20.00;69.40;;;19.45;63.61;96897.50;4233762;33;20225;-85
2022/09/06 08:06:43;;;;;;;;;;;20.00;69.40;;;19.45;63.94;96895.56;4233182;33;19979;-85
2022/09/06 08:09:12;;;;;;;;;;;20.00;69.40;;;19.46;63.69;96893.59;4233605;33;20107;-86
2022/09/06 08:11:42;;;;;;;;;;;20.10;69.40;;;19.47;63.53;96886.91;4257441;33;20129;-85
2022/09/06 08:14:10;;;;;;;;;;;20.10;69.40;;;19.47;63.54;96895.22;4257545;33;19925;-86
2022/09/06 08:16:39;;;;;;;;;;;20.00;69.20;;;19.47;63.75;96887.75;4209562;33;20244;-85
2022/09/06 08:19:09;;;;;;;;;;;20.10;69.40;;;19.48;63.41;96891.31;4233677;33;20264;-86
2022/09/06 08:21:38;;;;;;;;;;;20.10;69.30;;;19.47;63.55;96889.69;4233145;33;20229;-86
2022/09/06 08:24:08;;;;;;;;;;;20.10;69.30;;;19.46;63.63;96885.25;4257334;33;19902;-86
2022/09/06 08:26:39;;;;;;;;;;;20.10;69.20;;;19.44;63.73;96887.53;4232934;33;20551;-85
2022/09/06 08:29:09;;;;;;;;;;;20.10;69.20;;;19.40;63.51;96879.00;4233033;33;19902;-85
2022/09/06 08:31:39;;;;;;;;;;;20.10;69.20;;;19.37;63.73;96876.84;4233203;33;20108;-84
2022/09/06 08:34:08;;;;;;;;;;;20.00;69.20;;;19.36;63.81;96866.06;4209844;33;20114;-84
2022/09/06 08:36:36;;;;;;;;;;;20.00;69.40;;;19.35;63.80;96870.78;4232914;33;20255;-84
2022/09/06 08:39:07;;;;;;;;;;;20.00;69.40;;;19.35;63.97;96864.41;4209919;33;20125;-85
2022/09/06 08:41:45;;;;;;;;;;;20.00;69.40;;;19.35;63.84;96869.97;4209865;33;19909;-86
2022/09/06 08:44:18;;;;;;;;;;;20.00;69.50;;;19.34;63.87;96871.09;4233025;33;19902;-85
2022/09/06 08:46:52;;;;;;;;;;;20.00;69.60;;;19.35;64.11;96864.41;4232928;33;19902;-85
2022/09/06 08:49:21;;;;;;;;;;;20.00;69.60;;;19.32;64.01;96861.13;4233237;33;20351;-85
2022/09/06 08:52:35;;;;;;;;;;;20.00;69.60;;;19.31;64.31;96855.88;4233272;33;20101;-85
2022/09/06 08:55:20;;;;;;;;;;;20.00;69.60;;;19.26;64.09;96856.81;4224350;33;20205;-85
2022/09/06 08:58:05;;;;;;;;;;;20.00;69.60;;;19.18;64.25;96860.31;4256330;33;20088;-84
2022/09/06 09:00:35;;;;;;;;;;;19.90;69.80;;;19.13;64.57;96863.22;4233180;33;20078;-85
2022/09/06 09:03:07;;;;;;;;;;;19.90;70.00;;;19.08;64.54;96857.75;4233878;33;20155;-85
2022/09/06 09:05:37;;;;;;;;;;;19.80;70.10;;;19.07;64.57;96858.91;4209344;33;20005;-86
2022/09/06 09:08:12;;;;;;;;;;;19.80;70.20;;;19.06;64.89;96857.25;4209512;33;19903;-86
2022/09/06 09:10:46;;;;;;;;;;;19.80;70.30;;;19.05;64.68;96863.94;4233124;33;19932;-86
2022/09/06 09:13:22;;;;;;;;;;;19.80;70.30;;;19.04;64.80;96856.75;4209450;33;19909;-85
2022/09/06 09:15:52;;;;;;;;;;;19.70;70.40;;;19.03;64.68;96849.56;4209042;33;20108;-85
2022/09/06 09:18:25;;;;;;;;;;;19.80;70.40;;;19.01;65.00;96836.81;4232924;33;20210;-86
2022/09/06 09:20:53;;;;;;;;;;;19.70;70.40;;;19.03;64.71;96846.78;4232702;33;20063;-85
2022/09/06 09:23:22;;;;;;;;;;;19.80;70.40;;;19.02;64.90;96845.94;4209472;33;19902;-85
2022/09/06 09:25:52;;;;;;;;;;;19.80;70.50;;;19.01;64.77;96834.03;4232412;33;19909;-85
2022/09/06 09:28:23;;;;;;;;;;;19.80;70.40;;;18.99;64.94;96830.75;4208984;33;20120;-85
2022/09/06 09:30:55;;;;;;;;;;;19.70;70.50;;;18.99;65.43;96827.97;4233777;33;20125;-86
2022/09/06 09:33:28;;;;;;;;;;;19.70;70.60;;;19.01;65.29;96830.44;4209324;33;19902;-85
2022/09/06 09:35:58;;;;;;;;;;;19.70;70.60;;;18.99;65.13;96833.53;4232452;33;19911;-85
2022/09/06 09:38:27;;;;;;;;;;;19.70;70.60;;;18.98;64.98;96834.66;4209345;33;19902;-86
2022/09/06 09:40:57;;;;;;;;;;;19.70;70.60;;;18.96;65.09;96830.56;4234356;33;20356;-85
2022/09/06 09:43:26;;;;;;;;;;;19.70;70.70;;;18.91;65.13;96825.88;4258972;33;19917;-85
2022/09/06 09:46:16;;;;;;;;;;;19.70;70.80;;;18.89;65.23;96819.84;4211400;33;19909;-84
2022/09/06 09:48:59;;;;;;;;;;;19.60;70.80;;;18.87;65.64;96833.19;4235152;33;20213;-86
2022/09/06 09:51:28;;;;;;;;;;;19.60;70.80;;;18.83;65.32;96815.53;4211594;33;20091;-85
2022/09/06 09:53:58;;;;;;;;;;;19.60;71.00;;;18.80;65.26;96811.44;4235128;33;19909;-85
2022/09/06 09:56:36;;;;;;;;;;;19.60;71.10;;;18.80;65.46;96813.34;4234658;33;19909;-85
2022/09/06 09:59:08;;;;;;;;;;;19.50;71.10;;;18.79;65.64;96815.31;4211662;33;20104;-85
2022/09/06 10:01:38;;;;;;;;;;;19.50;71.20;;;18.80;65.69;96805.03;4234973;33;20152;-84
2022/09/06 10:04:08;;;;;;;;;;;19.50;71.10;;;18.79;65.71;96815.31;4234974;33;20022;-84
2022/09/06 10:06:36;;;;;;;;;;;19.50;71.10;;;18.80;65.46;96807.81;4234621;33;19902;-84
2022/09/06 10:09:21;;;;;;;;;;;19.50;71.10;;;18.79;65.63;96797.84;4234957;33;20043;-84
2022/09/06 10:11:54;;;;;;;;;;;19.50;71.10;;;18.76;65.61;96804.03;4234875;33;19925;-85
2022/09/06 10:14:29;;;;;;;;;;;19.50;71.10;;;18.74;65.63;96806.28;4235022;33;19909;-85
2022/09/06 10:17:00;;;;;;;;;;;19.50;71.20;;;18.70;65.76;96801.34;4234382;33;20562;-86
2022/09/06 10:19:40;;;;;;;;;;;19.50;71.30;;;18.73;65.70;96807.41;4234953;33;20503;-85
2022/09/06 10:22:31;;;;;;;;;;;19.50;71.20;;;18.71;65.60;96808.53;4234727;33;19902;-85
2022/09/06 10:25:39;;;;;;;;;;;19.40;71.10;;;18.71;65.69;96800.22;4231050;33;20339;-85
2022/09/06 10:28:41;;;;;;;;;;;19.40;71.20;;;18.73;65.84;96801.88;4232835;33;19910;-84
2022/09/06 10:31:47;;;;;;;;;;;19.50;72.10;;;18.71;65.86;96803.00;4234643;33;19913;-84
2022/09/06 10:34:33;;;;;;;;;;;19.50;71.30;;;18.70;65.48;96801.34;4178637;34;19903;-85
2022/09/06 10:37:09;;;;;;;;;;;19.40;71.20;;;18.68;65.85;96802.81;4155359;34;20238;-85
2022/09/06 10:39:44;;;;;;;;;;;19.40;71.20;;;18.67;65.91;96799.19;4178791;34;20202;-84
2022/09/06 10:42:19;;;;;;;;;;;19.40;71.30;;;18.67;66.07;96801.97;4155706;34;20097;-85
2022/09/06 10:44:59;;;;;;;;;;;19.40;71.30;;;18.68;65.66;96797.25;4155768;34;19910;-84
2022/09/06 10:47:31;;;;;;;;;;;19.40;71.30;;;18.65;65.71;96793.13;4155204;34;19967;-85
2022/09/06 10:50:01;;;;;;;;;;;19.40;71.40;;;18.66;65.62;96794.78;4178857;34;20145;-85
2022/09/06 10:52:33;;;;;;;;;;;19.40;71.30;;;18.66;65.75;96800.31;4178255;34;20125;-84
2022/09/06 10:55:03;;;;;;;;;;;19.40;71.30;;;18.65;65.70;96798.66;4178646;34;20130;-85
2022/09/06 10:57:35;;;;;;;;;;;19.40;71.30;;;18.64;65.61;96793.44;4155194;34;19903;-85
2022/09/06 11:00:10;;;;;;;;;;;19.40;71.40;;;18.64;65.71;96793.44;4178564;34;19903;-85
2022/09/06 11:02:41;;;;;;;;;;;19.40;71.40;;;18.63;66.00;96789.88;4155342;34;19973;-85
2022/09/06 11:05:13;;;;;;;;;;;19.40;71.40;;;18.62;65.98;96788.22;4155528;34;19961;-85
2022/09/06 11:07:43;;;;;;;;;;;19.40;71.40;;;18.62;65.83;96793.75;4177630;34;20134;-85
2022/09/06 11:10:16;;;;;;;;;;;19.30;71.50;;;18.61;65.83;96792.13;4155588;34;19903;-85
2022/09/06 11:12:48;;;;;;;;;;;19.30;71.50;;;18.61;66.00;96797.66;4155289;34;19903;-84
2022/09/06 11:15:18;;;;;;;;;;;19.30;71.50;;;18.63;65.66;96794.56;4178288;34;19903;-84
2022/09/06 11:17:49;;;;;;;;;;;19.30;71.50;;;18.61;65.91;96783.81;4178678;34;20147;-84
2022/09/06 11:20:24;;;;;;;;;;;19.40;71.40;;;18.62;65.93;96796.53;4178346;34;19903;-85
2022/09/06 11:23:28;;;;;;;;;;;19.40;71.40;;;18.62;65.66;96792.94;4178147;34;20078;-84
2022/09/06 11:26:33;;;;;;;;;;;19.40;71.40;;;18.62;65.58;96782.69;4154803;34;19919;-84
2022/09/06 11:29:04;;;;;;;;;;;19.40;71.40;;;18.61;65.92;96781.03;4178179;34;19903;-85
2022/09/06 11:31:34;;;;;;;;;;;19.30;71.40;;;18.60;65.72;96784.94;4179064;33;20106;-85
2022/09/06 11:34:08;;;;;;;;;;;19.30;71.30;;;18.59;65.91;96783.28;4177935;34;20085;-84
2022/09/06 11:36:40;;;;;;;;;;;19.30;71.40;;;18.59;65.66;96772.19;4154651;34;19903;-84
2022/09/06 11:39:09;;;;;;;;;;;19.30;71.40;;;18.59;65.72;96772.19;4177971;34;19903;-85
2022/09/06 11:41:39;;;;;;;;;;;19.30;71.50;;;18.58;65.94;96775.28;4177937;34;20134;-85
2022/09/06 11:44:08;;;;;;;;;;;19.30;71.40;;;18.59;65.74;96779.69;4177664;34;19910;-85
2022/09/06 11:47:00;;;;;;;;;;;19.30;71.40;;;18.60;65.54;96778.53;4177416;34;19903;-86
2022/09/06 11:49:34;;;;;;;;;;;19.30;71.40;;;18.58;65.84;96770.53;4177872;34;20158;-85
2022/09/06 11:52:37;;;;;;;;;;;19.30;71.30;;;18.59;65.70;96774.97;4178833;34;19929;-85
2022/09/06 11:55:09;;;;;;;;;;;19.30;71.40;;;18.59;65.95;96771.38;4177696;34;19991;-85